AAN107 LEMH-LEIB

Flight info

Callsign AAN107
Flight time 1h 6m
Altitude 2500
Route VFR
Aircraft BE36/L-SDG/C

Departure

Time 2026-04-22 14:27
Airport Menorca Airport (LEMH)

Arrival

Time 2026-04-22 15:34
Airport Ibiza Airport (LEIB)
Time Latitude Longitude Altitude Speed Heading
2026-04-22 14:26 39.86918 4.22232 295 ft 1 kts 263°
2026-04-22 14:26 39.86913 4.22154 295 ft 12 kts 244°
2026-04-22 14:26 39.86827 4.22036 300 ft 23 kts 218°
2026-04-22 14:26 39.86632 4.21942 299 ft 47 kts 188°
2026-04-22 14:27 39.86177 4.21861 367 ft 77 kts 193°
2026-04-22 14:27 39.85631 4.21717 541 ft 87 kts 190°
2026-04-22 14:27 39.85069 4.21565 793 ft 82 kts 207°
2026-04-22 14:27 39.84802 4.20884 910 ft 101 kts 283°
2026-04-22 14:28 39.85421 4.20492 1021 ft 120 kts 17°
2026-04-22 14:28 39.86179 4.20926 1081 ft 128 kts 14°
2026-04-22 14:28 39.87019 4.20540 894 ft 144 kts 298°
2026-04-22 14:28 39.87355 4.19315 887 ft 144 kts 287°
2026-04-22 14:29 39.87686 4.18084 914 ft 143 kts 288°
2026-04-22 14:29 39.87984 4.16886 1045 ft 136 kts 284°
2026-04-22 14:29 39.88224 4.15715 1176 ft 132 kts 283°
2026-04-22 14:29 39.88458 4.14577 1301 ft 130 kts 285°
2026-04-22 14:30 39.88700 4.13448 1426 ft 129 kts 285°
2026-04-22 14:30 39.88939 4.12336 1546 ft 127 kts 285°
2026-04-22 14:30 39.89172 4.11237 1671 ft 125 kts 285°
2026-04-22 14:30 39.89401 4.10150 1800 ft 124 kts 285°
2026-04-22 14:31 39.89632 4.09065 1937 ft 127 kts 285°
2026-04-22 14:31 39.89874 4.07923 2091 ft 135 kts 286°
2026-04-22 14:31 39.90064 4.06700 2252 ft 139 kts 278°
2026-04-22 14:31 39.90142 4.05455 2401 ft 137 kts 271°
2026-04-22 14:32 39.90127 4.04226 2533 ft 136 kts 269°
2026-04-22 14:32 39.90106 4.02950 2525 ft 144 kts 269°
2026-04-22 14:32 39.90095 4.01625 2524 ft 148 kts 270°
2026-04-22 14:32 39.90087 4.00293 2524 ft 150 kts 270°
2026-04-22 14:33 39.90075 3.98927 2526 ft 151 kts 269°
2026-04-22 14:33 39.90062 3.97554 2526 ft 152 kts 270°
2026-04-22 14:33 39.90049 3.96173 2522 ft 153 kts 270°
2026-04-22 14:33 39.90037 3.94790 2518 ft 153 kts 270°
2026-04-22 14:34 39.90026 3.93407 2513 ft 152 kts 270°
2026-04-22 14:34 39.90012 3.92020 2516 ft 154 kts 270°
2026-04-22 14:34 39.89999 3.90625 2521 ft 155 kts 270°
2026-04-22 14:34 39.89986 3.89223 2521 ft 155 kts 270°
2026-04-22 14:35 39.89973 3.87816 2521 ft 155 kts 270°
2026-04-22 14:35 39.89959 3.86409 2516 ft 155 kts 270°
2026-04-22 14:35 39.89944 3.85002 2522 ft 156 kts 270°
2026-04-22 14:35 39.89932 3.83594 2519 ft 155 kts 270°
2026-04-22 14:36 39.89917 3.82190 2517 ft 155 kts 270°
2026-04-22 14:36 39.89902 3.80789 2519 ft 155 kts 270°
2026-04-22 14:36 39.89888 3.79385 2519 ft 155 kts 270°
2026-04-22 14:36 39.89875 3.77994 2516 ft 155 kts 270°
2026-04-22 14:37 39.89859 3.76588 2520 ft 155 kts 270°
2026-04-22 14:37 39.89844 3.75178 2522 ft 156 kts 270°
2026-04-22 14:37 39.89829 3.73768 2518 ft 156 kts 270°
2026-04-22 14:37 39.89813 3.72357 2522 ft 156 kts 270°
2026-04-22 14:38 39.89798 3.70943 2519 ft 156 kts 270°
2026-04-22 14:38 39.89782 3.69528 2518 ft 156 kts 270°
2026-04-22 14:38 39.89767 3.68120 2535 ft 154 kts 270°
2026-04-22 14:38 39.89750 3.66774 2708 ft 144 kts 270°
2026-04-22 14:39 39.89736 3.65500 2868 ft 137 kts 270°
2026-04-22 14:39 39.89723 3.64279 3041 ft 132 kts 269°
2026-04-22 14:39 39.89708 3.63097 3221 ft 129 kts 269°
2026-04-22 14:40 39.89686 3.61173 3429 ft 130 kts 269°
2026-04-22 14:40 39.89666 3.59582 3481 ft 136 kts 269°
2026-04-22 14:40 39.89651 3.58333 3500 ft 140 kts 269°
2026-04-22 14:40 39.89636 3.57056 3513 ft 142 kts 269°
2026-04-22 14:41 39.89619 3.55761 3513 ft 144 kts 269°
2026-04-22 14:41 39.89608 3.54878 3517 ft 145 kts 269°
2026-04-22 14:41 39.89593 3.53560 3514 ft 146 kts 269°
2026-04-22 14:41 39.89576 3.52255 3516 ft 146 kts 269°
2026-04-22 14:42 39.89559 3.50930 3516 ft 146 kts 269°
2026-04-22 14:42 39.89542 3.49605 3514 ft 146 kts 269°
2026-04-22 14:42 39.89525 3.48279 3518 ft 146 kts 269°
2026-04-22 14:42 39.89507 3.46951 3518 ft 146 kts 269°
2026-04-22 14:43 39.89490 3.45626 3516 ft 146 kts 269°
2026-04-22 14:43 39.89473 3.44300 3518 ft 147 kts 269°
2026-04-22 14:43 39.89454 3.42972 3519 ft 147 kts 269°
2026-04-22 14:43 39.89435 3.41622 3416 ft 153 kts 269°
2026-04-22 14:44 39.89417 3.40216 3296 ft 157 kts 269°
2026-04-22 14:44 39.89397 3.38780 3169 ft 159 kts 269°
2026-04-22 14:44 39.89377 3.37346 3047 ft 161 kts 269°
2026-04-22 14:44 39.89357 3.35880 2927 ft 162 kts 269°
2026-04-22 14:45 39.89336 3.34401 2803 ft 164 kts 269°
2026-04-22 14:45 39.89315 3.32914 2680 ft 164 kts 269°
2026-04-22 14:45 39.89292 3.31426 2589 ft 164 kts 269°
2026-04-22 14:45 39.89271 3.29959 2537 ft 160 kts 269°
2026-04-22 14:46 39.89250 3.28520 2513 ft 157 kts 269°
2026-04-22 14:46 39.89229 3.27114 2507 ft 154 kts 269°
2026-04-22 14:46 39.89209 3.25727 2501 ft 152 kts 269°
2026-04-22 14:46 39.89188 3.24353 2499 ft 151 kts 269°
2026-04-22 14:47 39.89162 3.22550 2504 ft 150 kts 269°
2026-04-22 14:47 39.89060 3.21645 2504 ft 150 kts 250°
2026-04-22 14:47 39.88614 3.20416 2501 ft 150 kts 243°
2026-04-22 14:47 39.88116 3.19239 2507 ft 151 kts 238°
2026-04-22 14:48 39.87508 3.18119 2534 ft 153 kts 234°
2026-04-22 14:48 39.86880 3.17000 2550 ft 155 kts 234°
2026-04-22 14:48 39.86244 3.15836 2615 ft 160 kts 234°
2026-04-22 14:48 39.85592 3.14651 2579 ft 161 kts 236°
2026-04-22 14:49 39.84945 3.13472 2571 ft 160 kts 235°
2026-04-22 14:49 39.84291 3.12288 2579 ft 161 kts 234°
2026-04-22 14:49 39.83642 3.11110 2568 ft 160 kts 235°
2026-04-22 14:49 39.83004 3.09951 2534 ft 159 kts 235°
2026-04-22 14:50 39.82357 3.08772 2516 ft 157 kts 235°
2026-04-22 14:50 39.81727 3.07626 2529 ft 156 kts 234°
2026-04-22 14:50 39.81101 3.06492 2549 ft 157 kts 234°
2026-04-22 14:50 39.80460 3.05328 2585 ft 160 kts 234°
2026-04-22 14:51 39.79811 3.04151 2564 ft 160 kts 234°
2026-04-22 14:51 39.79157 3.02967 2535 ft 161 kts 234°
2026-04-22 14:51 39.78507 3.01788 2510 ft 160 kts 234°
2026-04-22 14:51 39.77857 3.00612 2503 ft 160 kts 234°
2026-04-22 14:52 39.77209 2.99438 2505 ft 160 kts 234°
2026-04-22 14:52 39.76565 2.98268 2479 ft 158 kts 234°
2026-04-22 14:52 39.75924 2.97116 2493 ft 157 kts 235°
2026-04-22 14:52 39.75295 2.95973 2489 ft 157 kts 234°
2026-04-22 14:53 39.74658 2.94823 2476 ft 156 kts 234°
2026-04-22 14:53 39.74024 2.93677 2482 ft 156 kts 234°
2026-04-22 14:53 39.73391 2.92532 2480 ft 156 kts 234°
2026-04-22 14:53 39.72754 2.91395 2476 ft 155 kts 233°
2026-04-22 14:54 39.72132 2.90250 2478 ft 155 kts 237°
2026-04-22 14:54 39.71548 2.89076 2483 ft 155 kts 238°
2026-04-22 14:54 39.70960 2.87908 2477 ft 154 kts 237°
2026-04-22 14:54 39.70366 2.86745 2477 ft 154 kts 237°
2026-04-22 14:55 39.69777 2.85587 2474 ft 153 kts 237°
2026-04-22 14:55 39.69189 2.84429 2484 ft 153 kts 237°
2026-04-22 14:55 39.68599 2.83272 2483 ft 154 kts 237°
2026-04-22 14:55 39.68015 2.82125 2484 ft 154 kts 237°
2026-04-22 14:56 39.67422 2.80959 2484 ft 155 kts 237°
2026-04-22 14:56 39.66826 2.79788 2476 ft 155 kts 237°
2026-04-22 14:56 39.66228 2.78620 2475 ft 155 kts 237°
2026-04-22 14:56 39.65636 2.77452 2471 ft 154 kts 237°
2026-04-22 14:57 39.65042 2.76291 2478 ft 154 kts 237°
2026-04-22 14:57 39.64448 2.75128 2477 ft 154 kts 237°
2026-04-22 14:57 39.63857 2.73968 2482 ft 154 kts 237°
2026-04-22 14:57 39.63265 2.72807 2477 ft 154 kts 237°
2026-04-22 14:58 39.62678 2.71664 2471 ft 154 kts 237°
2026-04-22 14:58 39.62087 2.70506 2477 ft 154 kts 237°
2026-04-22 14:58 39.61496 2.69349 2483 ft 154 kts 237°
2026-04-22 14:58 39.60901 2.68182 2481 ft 156 kts 237°
2026-04-22 14:59 39.60301 2.67013 2476 ft 156 kts 237°
2026-04-22 14:59 39.59780 2.65787 2474 ft 155 kts 247°
2026-04-22 14:59 39.59388 2.64479 2484 ft 156 kts 251°
2026-04-22 14:59 39.59111 2.63116 2484 ft 157 kts 258°
2026-04-22 15:00 39.58879 2.61720 2498 ft 159 kts 258°
2026-04-22 15:00 39.58636 2.60330 2481 ft 160 kts 257°
2026-04-22 15:00 39.58384 2.58924 2482 ft 160 kts 257°
2026-04-22 15:00 39.58138 2.57516 2468 ft 159 kts 257°
2026-04-22 15:01 39.57889 2.56119 2470 ft 158 kts 257°
2026-04-22 15:01 39.57640 2.54730 2484 ft 159 kts 258°
2026-04-22 15:01 39.57391 2.53326 2528 ft 160 kts 256°
2026-04-22 15:01 39.57141 2.51911 2536 ft 163 kts 257°
2026-04-22 15:02 39.56886 2.50478 2511 ft 162 kts 257°
2026-04-22 15:02 39.56631 2.49047 2518 ft 163 kts 257°
2026-04-22 15:02 39.56379 2.47632 2504 ft 163 kts 257°
2026-04-22 15:02 39.56133 2.46213 2493 ft 160 kts 257°
2026-04-22 15:03 39.55879 2.44824 2511 ft 157 kts 256°
2026-04-22 15:03 39.55631 2.43444 2513 ft 157 kts 258°
2026-04-22 15:03 39.55385 2.42054 2556 ft 159 kts 257°
2026-04-22 15:03 39.55123 2.40664 2522 ft 158 kts 251°
2026-04-22 15:04 39.54683 2.39347 2563 ft 160 kts 245°
2026-04-22 15:04 39.54167 2.38060 2552 ft 160 kts 240°
2026-04-22 15:04 39.53556 2.36860 2556 ft 160 kts 234°
2026-04-22 15:04 39.52921 2.35661 2564 ft 161 kts 236°
2026-04-22 15:05 39.52305 2.34458 2525 ft 159 kts 237°
2026-04-22 15:05 39.51700 2.33268 2505 ft 157 kts 237°
2026-04-22 15:05 39.51097 2.32100 2504 ft 155 kts 236°
2026-04-22 15:05 39.50500 2.30944 2501 ft 153 kts 237°
2026-04-22 15:06 39.49916 2.29808 2508 ft 152 kts 237°
2026-04-22 15:06 39.49329 2.28667 2499 ft 152 kts 237°
2026-04-22 15:06 39.48743 2.27530 2507 ft 152 kts 236°
2026-04-22 15:06 39.48152 2.26386 2504 ft 152 kts 236°
2026-04-22 15:07 39.47563 2.25242 2508 ft 153 kts 236°
2026-04-22 15:07 39.46972 2.24096 2507 ft 153 kts 236°
2026-04-22 15:07 39.46381 2.22954 2500 ft 152 kts 236°
2026-04-22 15:07 39.45793 2.21812 2504 ft 152 kts 236°
2026-04-22 15:08 39.45213 2.20689 2501 ft 152 kts 236°
2026-04-22 15:08 39.44627 2.19554 2508 ft 152 kts 236°
2026-04-22 15:08 39.44039 2.18417 2505 ft 152 kts 236°
2026-04-22 15:08 39.43447 2.17277 2500 ft 152 kts 236°
2026-04-22 15:09 39.42853 2.16137 2504 ft 153 kts 237°
2026-04-22 15:09 39.42269 2.14991 2500 ft 152 kts 237°
2026-04-22 15:09 39.41684 2.13856 2501 ft 152 kts 236°
2026-04-22 15:09 39.41095 2.12723 2505 ft 152 kts 236°
2026-04-22 15:10 39.40505 2.11587 2513 ft 152 kts 236°
2026-04-22 15:10 39.39924 2.10464 2507 ft 153 kts 236°
2026-04-22 15:10 39.39332 2.09322 2510 ft 153 kts 236°
2026-04-22 15:10 39.38740 2.08184 2500 ft 152 kts 236°
2026-04-22 15:11 39.38151 2.07046 2498 ft 152 kts 236°
2026-04-22 15:11 39.37562 2.05910 2506 ft 151 kts 236°
2026-04-22 15:11 39.36976 2.04782 2499 ft 151 kts 236°
2026-04-22 15:11 39.36390 2.03652 2510 ft 151 kts 236°
2026-04-22 15:12 39.35801 2.02520 2505 ft 152 kts 236°
2026-04-22 15:12 39.35212 2.01386 2506 ft 152 kts 236°
2026-04-22 15:12 39.34623 2.00252 2502 ft 152 kts 236°
2026-04-22 15:12 39.34033 1.99121 2506 ft 152 kts 236°
2026-04-22 15:13 39.33446 1.97990 2498 ft 152 kts 237°
2026-04-22 15:13 39.32859 1.96861 2505 ft 152 kts 237°
2026-04-22 15:13 39.32271 1.95733 2505 ft 151 kts 236°
2026-04-22 15:13 39.31683 1.94603 2508 ft 152 kts 236°
2026-04-22 15:14 39.31094 1.93471 2504 ft 151 kts 236°
2026-04-22 15:14 39.30504 1.92341 2508 ft 152 kts 236°
2026-04-22 15:14 39.29923 1.91224 2504 ft 152 kts 236°
2026-04-22 15:14 39.29333 1.90095 2501 ft 151 kts 237°
2026-04-22 15:15 39.28747 1.88968 2509 ft 152 kts 237°
2026-04-22 15:15 39.28158 1.87838 2510 ft 152 kts 236°
2026-04-22 15:15 39.27567 1.86710 2506 ft 152 kts 236°
2026-04-22 15:15 39.26977 1.85577 2508 ft 153 kts 236°
2026-04-22 15:16 39.26382 1.84440 2502 ft 153 kts 236°
2026-04-22 15:16 39.25789 1.83306 2495 ft 152 kts 236°
2026-04-22 15:16 39.25200 1.82178 2492 ft 151 kts 237°
2026-04-22 15:16 39.24614 1.81057 2501 ft 150 kts 236°
2026-04-22 15:17 39.24029 1.79937 2505 ft 151 kts 236°
2026-04-22 15:17 39.23440 1.78811 2498 ft 152 kts 236°
2026-04-22 15:17 39.22847 1.77683 2500 ft 152 kts 237°
2026-04-22 15:17 39.22256 1.76550 2496 ft 152 kts 236°
2026-04-22 15:18 39.21663 1.75420 2495 ft 151 kts 237°
2026-04-22 15:18 39.21075 1.74299 2495 ft 151 kts 237°
2026-04-22 15:18 39.20497 1.73192 2494 ft 151 kts 236°
2026-04-22 15:18 39.19900 1.72056 2499 ft 151 kts 236°
2026-04-22 15:19 39.19319 1.70946 2499 ft 151 kts 236°
2026-04-22 15:19 39.18729 1.69823 2490 ft 151 kts 236°
2026-04-22 15:19 39.18140 1.68706 2491 ft 150 kts 236°
2026-04-22 15:19 39.17556 1.67589 2493 ft 150 kts 236°
2026-04-22 15:20 39.17161 1.66833 2495 ft 150 kts 236°
2026-04-22 15:20 39.16382 1.65356 2492 ft 150 kts 236°
2026-04-22 15:20 39.15795 1.64236 2495 ft 151 kts 237°
2026-04-22 15:20 39.15207 1.63119 2498 ft 151 kts 236°
2026-04-22 15:21 39.14616 1.61996 2501 ft 151 kts 236°
2026-04-22 15:21 39.14024 1.60868 2504 ft 153 kts 236°
2026-04-22 15:21 39.13425 1.59735 2501 ft 153 kts 236°
2026-04-22 15:21 39.12836 1.58616 2488 ft 153 kts 237°
2026-04-22 15:22 39.12243 1.57489 2492 ft 151 kts 236°
2026-04-22 15:22 39.11654 1.56370 2498 ft 151 kts 236°
2026-04-22 15:22 39.11064 1.55250 2507 ft 151 kts 236°
2026-04-22 15:22 39.10469 1.54125 2523 ft 153 kts 236°
2026-04-22 15:23 39.09860 1.52972 2562 ft 158 kts 236°
2026-04-22 15:23 39.09243 1.51797 2522 ft 159 kts 236°
2026-04-22 15:23 39.08620 1.50620 2534 ft 160 kts 236°
2026-04-22 15:23 39.07995 1.49434 2513 ft 160 kts 236°
2026-04-22 15:24 39.07374 1.48257 2494 ft 158 kts 236°
2026-04-22 15:24 39.06753 1.47084 2510 ft 159 kts 236°
2026-04-22 15:24 39.06134 1.45912 2509 ft 161 kts 236°
2026-04-22 15:24 39.05505 1.44724 2510 ft 160 kts 236°
2026-04-22 15:25 39.04880 1.43547 2492 ft 159 kts 236°
2026-04-22 15:25 39.04261 1.42371 2499 ft 159 kts 236°
2026-04-22 15:25 39.03638 1.41196 2501 ft 159 kts 236°
2026-04-22 15:25 39.03011 1.40013 2511 ft 161 kts 236°
2026-04-22 15:26 39.02381 1.38824 2494 ft 159 kts 236°
2026-04-22 15:26 39.01762 1.37658 2499 ft 160 kts 236°
2026-04-22 15:26 39.01138 1.36478 2491 ft 159 kts 236°
2026-04-22 15:26 39.00522 1.35316 2500 ft 157 kts 236°
2026-04-22 15:27 38.99902 1.34152 2515 ft 159 kts 236°
2026-04-22 15:27 38.99280 1.32978 2496 ft 158 kts 236°
2026-04-22 15:27 38.98610 1.31859 2499 ft 158 kts 218°
2026-04-22 15:27 38.97589 1.31552 2500 ft 154 kts 169°
2026-04-22 15:28 38.96601 1.32056 2501 ft 152 kts 156°
2026-04-22 15:28 38.95665 1.32668 2500 ft 150 kts 154°
2026-04-22 15:28 38.95050 1.33059 2495 ft 148 kts 156°
2026-04-22 15:28 38.94118 1.33577 2508 ft 139 kts 158°
2026-04-22 15:29 38.93247 1.34056 2447 ft 133 kts 158°
2026-04-22 15:29 38.92145 1.34682 2359 ft 128 kts 157°
2026-04-22 15:29 38.91334 1.35134 2291 ft 125 kts 155°
2026-04-22 15:30 38.90951 1.36722 2075 ft 118 kts 70°
2026-04-22 15:30 38.91277 1.37647 1896 ft 111 kts 66°
2026-04-22 15:30 38.91620 1.38480 1843 ft 94 kts 64°
2026-04-22 15:30 38.91897 1.39105 2134 ft 75 kts 61°
2026-04-22 15:31 38.92191 1.39815 2028 ft 99 kts 68°
2026-04-22 15:31 38.92429 1.40659 2080 ft 100 kts 76°
2026-04-22 15:31 38.92381 1.41540 2137 ft 97 kts 119°
2026-04-22 15:31 38.91921 1.42120 2178 ft 103 kts 173°
2026-04-22 15:32 38.91212 1.42020 2259 ft 102 kts 200°
2026-04-22 15:32 38.90595 1.41612 1933 ft 93 kts 211°
2026-04-22 15:32 38.90057 1.41272 1644 ft 84 kts 202°
2026-04-22 15:32 38.89514 1.40934 1322 ft 88 kts 202°
2026-04-22 15:33 38.88998 1.40565 1037 ft 84 kts 207°
2026-04-22 15:33 38.88525 1.40100 669 ft 85 kts 223°
2026-04-22 15:33 38.88185 1.39509 373 ft 81 kts 242°
2026-04-22 15:33 38.87932 1.38888 110 ft 72 kts 240°
2026-04-22 15:34 38.87718 1.38370 26 ft 54 kts 240°
2026-04-22 15:34 38.87616 1.38142 27 ft 18 kts 242°
2026-04-22 15:34 38.87563 1.37998 28 ft 18 kts 243°
2026-04-22 15:34 38.87510 1.37859 28 ft 18 kts 242°
2026-04-22 15:35 38.87452 1.37718 28 ft 18 kts 242°
2026-04-22 15:35 38.87394 1.37577 28 ft 17 kts 241°
2026-04-22 15:35 38.87381 1.37457 28 ft 10 kts 348°
2026-04-22 15:35 38.87439 1.37485 28 ft 11 kts 37°
2026-04-22 15:36 38.87520 1.37548 24 ft 12 kts 26°
2026-04-22 15:36 38.87603 1.37538 24 ft 14 kts 333°
2026-04-22 15:36 38.87689 1.37482 24 ft 10 kts 13°
2026-04-22 15:36 38.87734 1.37547 15 ft 7 kts 349°
2026-04-22 15:37 38.87748 1.37504 18 ft 4 kts 237°
2026-04-22 15:37 38.87747 1.37502 19 ft 0 kts 239°